createdAt,value
2022-09-12T00:01:18.183Z,99.90
2022-09-12T00:03:45.427Z,99.90
2022-09-12T00:06:17.191Z,99.90
2022-09-12T00:08:47.591Z,99.90
2022-09-12T00:11:14.594Z,99.90
2022-09-12T00:13:42.085Z,99.90
2022-09-12T00:16:15.810Z,99.90
2022-09-12T00:18:45.046Z,99.90
2022-09-12T00:21:12.140Z,99.90
2022-09-12T00:23:38.990Z,99.90
2022-09-12T00:26:06.625Z,99.90
2022-09-12T00:28:34.649Z,99.90
2022-09-12T00:31:04.000Z,99.90
2022-09-12T00:33:31.339Z,99.90
2022-09-12T00:35:58.179Z,99.90
2022-09-12T00:38:24.974Z,99.90
2022-09-12T00:40:51.849Z,99.90
2022-09-12T00:43:30.606Z,99.90
2022-09-12T00:45:58.183Z,99.90
2022-09-12T00:48:31.015Z,99.90
2022-09-12T00:50:58.322Z,99.90
2022-09-12T00:53:25.641Z,99.90
2022-09-12T00:55:53.159Z,99.90
2022-09-12T00:58:22.378Z,99.90
2022-09-12T01:00:49.901Z,99.90
2022-09-12T01:03:18.019Z,99.90
2022-09-12T01:05:52.839Z,99.90
2022-09-12T01:08:20.423Z,99.90
2022-09-12T01:10:47.709Z,99.90
2022-09-12T01:13:14.960Z,99.90
2022-09-12T01:15:41.846Z,99.90
2022-09-12T01:18:14.454Z,99.90
2022-09-12T01:20:44.079Z,99.90
2022-09-12T01:23:31.160Z,99.90
2022-09-12T01:26:01.096Z,99.90
2022-09-12T01:28:28.046Z,99.90
2022-09-12T01:30:54.939Z,99.90
2022-09-12T01:33:40.299Z,99.90
2022-09-12T01:36:32.466Z,99.90
2022-09-12T01:39:01.398Z,99.90
2022-09-12T01:41:41.104Z,99.90
2022-09-12T01:44:23.527Z,99.90
2022-09-12T01:47:02.394Z,99.90
2022-09-12T01:49:41.269Z,99.90
2022-09-12T01:52:08.963Z,99.90
2022-09-12T01:54:39.998Z,99.90
2022-09-12T01:57:11.210Z,99.90
2022-09-12T01:59:44.374Z,99.90
2022-09-12T02:02:38.092Z,99.90
2022-09-12T02:05:14.940Z,99.90
2022-09-12T02:07:51.572Z,99.90
2022-09-12T02:10:24.021Z,99.90
2022-09-12T02:13:17.512Z,99.90
2022-09-12T02:15:50.539Z,99.90
2022-09-12T02:18:20.057Z,99.90
2022-09-12T02:20:49.282Z,99.90
2022-09-12T02:23:25.424Z,99.90
2022-09-12T02:26:05.979Z,99.90
2022-09-12T02:28:36.946Z,99.90
2022-09-12T02:31:17.397Z,99.90
2022-09-12T02:34:14.069Z,99.90
2022-09-12T02:36:50.196Z,99.90
2022-09-12T02:39:21.107Z,99.90
2022-09-12T02:41:51.772Z,99.90
2022-09-12T02:44:19.227Z,99.90
2022-09-12T02:46:53.918Z,99.90
2022-09-12T02:49:21.329Z,99.90
2022-09-12T02:51:48.739Z,99.90
2022-09-12T02:54:17.964Z,99.90
2022-09-12T02:56:45.766Z,99.90
2022-09-12T02:59:18.008Z,99.90
2022-09-12T03:02:16.759Z,99.90
2022-09-12T03:05:05.259Z,99.90
2022-09-12T03:07:56.859Z,99.90
2022-09-12T03:10:45.581Z,99.90
2022-09-12T03:13:12.578Z,99.90
2022-09-12T03:16:08.603Z,99.90
2022-09-12T03:18:53.771Z,99.90
2022-09-12T03:21:26.902Z,99.90
2022-09-12T03:23:56.991Z,99.90
2022-09-12T03:26:44.779Z,99.90
2022-09-12T03:29:12.654Z,99.90
2022-09-12T03:31:48.231Z,99.90
2022-09-12T03:34:15.178Z,99.90
2022-09-12T03:36:42.223Z,99.90
2022-09-12T03:39:09.106Z,99.90
2022-09-12T03:41:36.111Z,99.90
2022-09-12T03:44:03.579Z,99.90
2022-09-12T03:46:30.446Z,99.90
2022-09-12T03:48:57.436Z,99.90
2022-09-12T03:51:24.515Z,99.90
2022-09-12T03:53:51.302Z,99.90
2022-09-12T03:56:19.424Z,99.90
2022-09-12T03:58:46.830Z,99.90
2022-09-12T04:01:14.931Z,99.90
2022-09-12T04:03:42.281Z,99.90
2022-09-12T04:06:09.825Z,99.90
2022-09-12T04:08:37.470Z,99.90
2022-09-12T04:11:05.543Z,99.90
2022-09-12T04:13:32.623Z,99.90
2022-09-12T04:16:00.018Z,99.90
2022-09-12T04:18:27.484Z,99.90
2022-09-12T04:20:54.382Z,99.90
2022-09-12T04:23:21.175Z,99.90
2022-09-12T04:25:57.635Z,99.90
2022-09-12T04:28:24.811Z,99.90
2022-09-12T04:30:51.722Z,99.90
2022-09-12T04:33:18.795Z,99.90
2022-09-12T04:35:45.638Z,99.90
2022-09-12T04:38:12.514Z,99.90
2022-09-12T04:40:39.482Z,99.90
2022-09-12T04:43:09.226Z,99.90
2022-09-12T04:45:38.181Z,99.90
2022-09-12T04:48:05.076Z,99.90
2022-09-12T04:50:32.141Z,99.90
2022-09-12T04:52:58.924Z,99.90
2022-09-12T04:55:26.219Z,99.90
2022-09-12T04:57:53.159Z,99.90
2022-09-12T05:00:20.603Z,99.90
2022-09-12T05:02:47.499Z,99.90
2022-09-12T05:05:14.530Z,99.90
2022-09-12T05:07:41.318Z,99.90
2022-09-12T05:10:08.559Z,99.90
2022-09-12T05:12:36.139Z,99.90
2022-09-12T05:15:04.703Z,99.90
2022-09-12T05:17:31.666Z,99.90
2022-09-12T05:19:58.531Z,99.90
2022-09-12T05:22:25.327Z,99.90
2022-09-12T05:24:52.184Z,99.90
2022-09-12T05:27:20.144Z,99.90
2022-09-12T05:29:46.973Z,99.90
2022-09-12T05:32:13.841Z,99.90
2022-09-12T05:34:40.732Z,99.90
2022-09-12T05:37:07.847Z,99.90
2022-09-12T05:39:34.878Z,99.90
2022-09-12T05:42:02.607Z,99.90
2022-09-12T05:44:29.475Z,99.90
2022-09-12T05:46:56.254Z,99.90
2022-09-12T05:49:23.270Z,99.90
2022-09-12T05:51:51.638Z,99.90
2022-09-12T05:54:20.444Z,99.90
2022-09-12T05:56:48.649Z,99.90
2022-09-12T05:59:19.796Z,99.90
2022-09-12T06:01:46.981Z,99.90
2022-09-12T06:04:13.964Z,99.90
2022-09-12T06:06:42.063Z,99.90
2022-09-12T06:09:09.458Z,99.90
2022-09-12T06:11:37.387Z,99.90
2022-09-12T06:14:04.713Z,99.90
2022-09-12T06:16:33.207Z,99.90
2022-09-12T06:19:20.422Z,99.90
2022-09-12T06:21:48.380Z,99.90
2022-09-12T06:24:18.474Z,99.90
2022-09-12T06:26:45.684Z,99.90
2022-09-12T06:29:13.366Z,99.90
2022-09-12T06:31:41.877Z,99.90
2022-09-12T06:34:10.112Z,99.90
2022-09-12T06:36:38.962Z,99.90
2022-09-12T06:39:07.757Z,99.90
2022-09-12T06:41:34.775Z,99.90
2022-09-12T06:44:01.838Z,99.90
2022-09-12T06:46:28.911Z,99.90
2022-09-12T06:48:56.183Z,99.90
2022-09-12T06:51:23.379Z,99.90
2022-09-12T06:53:50.381Z,99.90
2022-09-12T06:56:21.370Z,99.90
2022-09-12T06:58:49.283Z,99.90
2022-09-12T07:01:19.041Z,99.90
2022-09-12T07:03:56.221Z,99.90
2022-09-12T07:06:24.490Z,99.90
2022-09-12T07:08:51.363Z,99.90
2022-09-12T07:11:20.238Z,99.90
2022-09-12T07:13:48.233Z,99.90
2022-09-12T07:16:19.457Z,99.90
2022-09-12T07:18:50.925Z,99.90
2022-09-12T07:21:17.825Z,99.90
2022-09-12T07:23:45.567Z,99.90
2022-09-12T07:26:13.018Z,99.90
2022-09-12T07:28:40.231Z,99.90
2022-09-12T07:31:08.789Z,99.90
2022-09-12T07:33:35.845Z,99.90
2022-09-12T07:36:03.981Z,99.90
2022-09-12T07:38:31.116Z,99.90
2022-09-12T07:40:57.923Z,99.90
2022-09-12T07:43:25.209Z,99.90
2022-09-12T07:45:56.158Z,99.90
2022-09-12T07:48:23.221Z,99.90
2022-09-12T07:50:57.654Z,99.90
2022-09-12T07:53:24.550Z,99.90
2022-09-12T07:55:55.178Z,99.90
2022-09-12T07:58:25.139Z,99.90
2022-09-12T08:00:52.250Z,99.90
2022-09-12T08:03:19.324Z,99.90
2022-09-12T08:05:46.342Z,99.90
2022-09-12T08:08:13.114Z,99.90
2022-09-12T08:10:39.915Z,99.90
2022-09-12T08:13:10.116Z,99.90
2022-09-12T08:15:37.600Z,99.90
2022-09-12T08:18:04.563Z,99.90
2022-09-12T08:20:31.387Z,99.90
2022-09-12T08:22:58.247Z,99.90
2022-09-12T08:25:26.038Z,99.90
2022-09-12T08:27:52.912Z,99.90
2022-09-12T08:30:19.715Z,99.90
2022-09-12T08:32:47.266Z,99.90
2022-09-12T08:35:15.180Z,99.90
2022-09-12T08:37:42.043Z,99.90
2022-09-12T08:40:14.592Z,99.90
2022-09-12T08:42:44.210Z,99.90
2022-09-12T08:45:11.015Z,99.90
2022-09-12T08:47:40.210Z,99.90
2022-09-12T08:50:14.784Z,99.90
2022-09-12T08:52:41.933Z,99.90
2022-09-12T08:55:26.674Z,99.90
2022-09-12T08:57:53.887Z,99.90
2022-09-12T09:00:21.611Z,99.90
2022-09-12T09:02:51.350Z,99.90
2022-09-12T09:05:21.147Z,99.90
2022-09-12T09:07:50.701Z,99.90
2022-09-12T09:10:24.352Z,99.90
2022-09-12T09:13:03.734Z,99.90
2022-09-12T09:15:33.623Z,99.90
2022-09-12T09:18:00.528Z,99.90
2022-09-12T09:20:30.876Z,99.90
2022-09-12T09:23:06.928Z,99.90
2022-09-12T09:25:43.793Z,99.90
2022-09-12T09:28:22.752Z,99.90
2022-09-12T09:30:50.492Z,99.90
2022-09-12T09:33:22.486Z,99.90
2022-09-12T09:35:56.738Z,99.90
2022-09-12T09:38:50.291Z,99.90
2022-09-12T09:41:41.859Z,99.90
2022-09-12T09:44:09.031Z,99.90
2022-09-12T09:46:36.150Z,99.90
2022-09-12T09:49:04.100Z,99.90
2022-09-12T09:51:37.708Z,99.90
2022-09-12T09:54:10.656Z,99.90
2022-09-12T09:56:40.704Z,99.90
2022-09-12T09:59:18.802Z,99.90
2022-09-12T10:01:47.566Z,99.90
2022-09-12T10:04:40.665Z,99.90
2022-09-12T10:07:19.355Z,99.90
2022-09-12T10:10:05.218Z,99.90
2022-09-12T10:12:32.321Z,99.90
2022-09-12T10:15:02.309Z,99.90
2022-09-12T10:17:34.311Z,99.90
2022-09-12T10:20:21.435Z,99.90
2022-09-12T10:22:49.682Z,99.90
2022-09-12T10:25:19.065Z,99.90
2022-09-12T10:28:00.534Z,99.90
2022-09-12T10:30:28.678Z,99.90
2022-09-12T10:33:07.024Z,99.90
2022-09-12T10:35:48.965Z,99.90
2022-09-12T10:38:27.216Z,99.90
2022-09-12T10:41:01.286Z,99.90
2022-09-12T10:43:35.650Z,99.90
2022-09-12T10:46:17.838Z,99.90
2022-09-12T10:48:49.779Z,99.90
2022-09-12T10:51:27.418Z,99.90
2022-09-12T10:54:07.919Z,99.90
2022-09-12T10:56:42.475Z,99.90
2022-09-12T10:59:35.560Z,99.90
2022-09-12T11:02:15.131Z,99.90
2022-09-12T11:05:06.300Z,99.90
2022-09-12T11:07:42.036Z,99.90
2022-09-12T11:10:27.466Z,99.90
2022-09-12T11:13:13.891Z,99.90
2022-09-12T11:16:05.207Z,99.90
2022-09-12T11:19:10.749Z,99.90
2022-09-12T11:22:00.239Z,99.90
2022-09-12T11:24:40.186Z,99.90
2022-09-12T11:27:30.611Z,99.90
2022-09-12T11:30:11.693Z,99.90
2022-09-12T11:33:05.721Z,99.90
2022-09-12T11:35:35.887Z,99.40
2022-09-12T11:38:23.829Z,99.90
2022-09-12T11:40:55.929Z,99.60
2022-09-12T11:43:37.944Z,99.90
2022-09-12T11:46:22.640Z,99.80
2022-09-12T11:49:04.891Z,99.00
2022-09-12T11:51:59.838Z,97.80
2022-09-12T11:54:44.837Z,97.40
2022-09-12T11:57:18.031Z,97.80
2022-09-12T12:00:09.974Z,97.10
2022-09-12T12:02:48.333Z,97.60
2022-09-12T12:05:46.279Z,97.90
2022-09-12T12:08:14.622Z,96.90
2022-09-12T12:10:44.266Z,96.60
2022-09-12T12:13:28.219Z,96.00
2022-09-12T12:16:04.140Z,97.20
2022-09-12T12:18:34.289Z,95.60
2022-09-12T12:21:29.445Z,95.90
2022-09-12T12:24:09.200Z,94.00
2022-09-12T12:26:39.544Z,93.90
2022-09-12T12:29:33.659Z,93.40
2022-09-12T12:32:07.813Z,92.80
2022-09-12T12:34:37.488Z,92.10
2022-09-12T12:37:19.755Z,92.00
2022-09-12T12:39:50.452Z,91.10
2022-09-12T12:42:35.925Z,91.60
2022-09-12T12:45:08.980Z,90.40
2022-09-12T12:47:38.955Z,90.20
2022-09-12T12:50:11.271Z,90.10
2022-09-12T12:53:19.675Z,88.80
2022-09-12T12:55:57.341Z,88.80
2022-09-12T12:58:37.504Z,84.90
2022-09-12T13:01:12.942Z,85.80
2022-09-12T13:03:47.079Z,86.90
2022-09-12T13:06:36.184Z,85.80
2022-09-12T13:09:18.399Z,83.90
2022-09-12T13:11:46.047Z,83.80
2022-09-12T13:14:34.824Z,85.20
2022-09-12T13:17:06.301Z,82.20
2022-09-12T13:19:36.886Z,76.90
2022-09-12T13:22:09.516Z,77.70
2022-09-12T13:24:52.247Z,78.20
2022-09-12T13:27:19.555Z,80.60
2022-09-12T13:29:46.604Z,81.30
2022-09-12T13:32:14.914Z,77.00
2022-09-12T13:35:05.099Z,78.10
2022-09-12T13:37:51.266Z,76.00
2022-09-12T13:40:33.228Z,75.40
2022-09-12T13:43:12.452Z,75.60
2022-09-12T13:45:39.799Z,74.80
2022-09-12T13:48:16.806Z,69.90
2022-09-12T13:50:57.248Z,65.70
2022-09-12T13:53:42.348Z,62.90
2022-09-12T13:56:17.074Z,65.00
2022-09-12T13:58:57.597Z,67.30
2022-09-12T14:01:39.419Z,71.00
2022-09-12T14:04:43.031Z,72.10
2022-09-12T14:07:25.770Z,67.90
2022-09-12T14:10:01.041Z,67.30
2022-09-12T14:12:39.324Z,68.20
2022-09-12T14:15:09.631Z,67.40
2022-09-12T14:17:39.653Z,67.10
2022-09-12T14:20:16.459Z,67.00
2022-09-12T14:22:43.532Z,66.70
2022-09-12T14:25:20.082Z,68.40
2022-09-12T14:27:57.809Z,67.10
2022-09-12T14:30:32.103Z,69.10
2022-09-12T14:33:11.309Z,66.20
2022-09-12T14:35:59.608Z,68.20
2022-09-12T14:38:35.200Z,67.00
2022-09-12T14:41:08.101Z,67.20
2022-09-12T14:43:42.726Z,62.60
2022-09-12T14:46:20.582Z,62.80
2022-09-12T14:48:53.047Z,64.50
2022-09-12T14:51:32.482Z,63.70
2022-09-12T14:53:59.700Z,62.80
2022-09-12T14:56:43.583Z,65.10
2022-09-12T14:59:35.875Z,64.80
2022-09-12T15:02:21.255Z,65.30
2022-09-12T15:04:51.663Z,64.50
2022-09-12T15:07:24.915Z,65.10
2022-09-12T15:09:53.132Z,66.60
2022-09-12T15:12:20.105Z,66.10
2022-09-12T15:14:47.324Z,65.30
2022-09-12T15:17:14.241Z,65.10
2022-09-12T15:19:41.341Z,64.20
2022-09-12T15:22:12.314Z,65.60
2022-09-12T15:24:40.225Z,66.50
2022-09-12T15:27:13.351Z,66.20
2022-09-12T15:29:40.400Z,65.50
2022-09-12T15:32:15.086Z,63.80
2022-09-12T15:34:42.163Z,66.70
2022-09-12T15:37:14.194Z,64.90
2022-09-12T15:39:41.335Z,65.10
2022-09-12T15:42:11.254Z,65.70
2022-09-12T15:44:38.211Z,65.00
2022-09-12T15:47:05.315Z,64.70
2022-09-12T15:49:32.535Z,64.00
2022-09-12T15:52:00.355Z,66.00
2022-09-12T15:54:27.251Z,66.90
2022-09-12T15:56:55.139Z,66.70
2022-09-12T15:59:22.072Z,65.90
2022-09-12T16:01:49.313Z,68.80
2022-09-12T16:04:23.823Z,67.60
2022-09-12T16:06:51.696Z,71.40
2022-09-12T16:09:18.687Z,70.50
2022-09-12T16:11:46.631Z,68.40
2022-09-12T16:14:18.186Z,68.60
2022-09-12T16:16:53.836Z,72.70
2022-09-12T16:19:21.103Z,73.90
2022-09-12T16:21:48.243Z,72.20
2022-09-12T16:24:15.623Z,75.30
2022-09-12T16:26:42.580Z,77.70
2022-09-12T16:29:12.559Z,83.80
2022-09-12T16:31:40.093Z,87.10
2022-09-12T16:34:07.514Z,88.40
2022-09-12T16:36:34.787Z,92.00
2022-09-12T16:39:01.780Z,91.50
2022-09-12T16:41:29.075Z,93.20
2022-09-12T16:43:56.054Z,94.00
2022-09-12T16:46:24.621Z,94.50
2022-09-12T16:48:55.943Z,95.00
2022-09-12T16:51:24.446Z,97.10
2022-09-12T16:53:51.708Z,99.90
2022-09-12T16:56:18.685Z,99.50
2022-09-12T16:58:45.559Z,99.90
2022-09-12T17:01:17.004Z,99.90
2022-09-12T17:03:44.225Z,99.90
2022-09-12T17:06:16.207Z,99.90
2022-09-12T17:08:44.276Z,99.90
2022-09-12T17:11:12.343Z,99.90
2022-09-12T17:14:00.496Z,99.90
2022-09-12T17:16:27.367Z,99.90
2022-09-12T17:18:54.456Z,99.90
2022-09-12T17:21:21.450Z,99.90
2022-09-12T17:23:48.805Z,99.90
2022-09-12T17:26:15.747Z,99.90
2022-09-12T17:28:42.624Z,99.90
2022-09-12T17:31:10.691Z,99.90
2022-09-12T17:33:38.056Z,99.90
2022-09-12T17:36:06.868Z,99.90
2022-09-12T17:38:34.875Z,99.90
2022-09-12T17:41:17.339Z,99.90
2022-09-12T17:43:50.261Z,99.90
2022-09-12T17:46:18.165Z,99.90
2022-09-12T17:48:45.190Z,99.90
2022-09-12T17:51:13.590Z,99.90
2022-09-12T17:53:40.762Z,99.90
2022-09-12T17:56:08.663Z,99.90
2022-09-12T17:58:35.806Z,99.90
2022-09-12T18:01:30.631Z,99.90
2022-09-12T18:04:00.575Z,99.90
2022-09-12T18:06:28.236Z,99.90
2022-09-12T18:08:55.324Z,99.90
2022-09-12T18:11:22.248Z,99.90
2022-09-12T18:13:49.366Z,99.90
2022-09-12T18:16:16.541Z,99.90
2022-09-12T18:18:43.474Z,99.90
2022-09-12T18:21:10.900Z,99.90
2022-09-12T18:23:38.028Z,99.90
2022-09-12T18:26:06.702Z,99.90
2022-09-12T18:28:34.521Z,99.90
2022-09-12T18:31:01.618Z,99.90
2022-09-12T18:33:28.510Z,99.90
2022-09-12T18:35:55.306Z,99.90
2022-09-12T18:38:22.519Z,99.90
2022-09-12T18:40:49.711Z,99.90
2022-09-12T18:43:16.668Z,99.90
2022-09-12T18:45:43.454Z,99.90
2022-09-12T18:48:10.377Z,99.90
2022-09-12T18:50:37.276Z,99.90
2022-09-12T18:53:04.134Z,99.90
2022-09-12T18:55:31.939Z,99.90
2022-09-12T18:57:58.819Z,99.90
2022-09-12T19:00:25.726Z,99.90
2022-09-12T19:02:52.578Z,99.90
2022-09-12T19:05:19.423Z,99.90
2022-09-12T19:07:46.323Z,99.90
2022-09-12T19:10:13.225Z,99.90
2022-09-12T19:12:40.153Z,99.90
2022-09-12T19:15:08.394Z,99.90
2022-09-12T19:17:35.830Z,99.90
2022-09-12T19:20:03.007Z,99.90
2022-09-12T19:22:29.926Z,99.90
2022-09-12T19:24:56.784Z,99.90
2022-09-12T19:27:23.632Z,99.90
2022-09-12T19:29:50.444Z,99.90
2022-09-12T19:32:17.270Z,99.90
2022-09-12T19:34:44.138Z,99.90
2022-09-12T19:37:10.994Z,99.90
2022-09-12T19:39:37.862Z,99.90
2022-09-12T19:42:04.736Z,99.90
2022-09-12T19:44:31.579Z,99.90
2022-09-12T19:46:58.714Z,99.90
2022-09-12T19:49:26.046Z,99.90
2022-09-12T19:51:52.930Z,99.90
2022-09-12T19:54:19.755Z,99.90
2022-09-12T19:56:46.823Z,99.90
2022-09-12T19:59:13.808Z,99.90
2022-09-12T20:01:40.846Z,99.90
2022-09-12T20:04:07.996Z,99.90
2022-09-12T20:06:35.083Z,99.90
2022-09-12T20:09:01.944Z,99.90
2022-09-12T20:11:28.998Z,99.90
2022-09-12T20:13:55.836Z,99.90
2022-09-12T20:16:29.218Z,99.90
2022-09-12T20:18:57.985Z,99.90
2022-09-12T20:21:31.137Z,99.90
2022-09-12T20:24:01.781Z,99.90
2022-09-12T20:26:28.647Z,99.90
2022-09-12T20:28:55.687Z,99.90
2022-09-12T20:31:22.559Z,99.90
2022-09-12T20:33:51.750Z,99.90
2022-09-12T20:36:20.620Z,99.90
2022-09-12T20:38:49.127Z,99.90
2022-09-12T20:41:16.487Z,99.90
2022-09-12T20:43:43.338Z,99.90
2022-09-12T20:46:10.663Z,99.90
2022-09-12T20:48:38.082Z,99.90
2022-09-12T20:51:05.246Z,99.90
2022-09-12T20:53:35.045Z,99.90
2022-09-12T20:56:02.675Z,99.90
2022-09-12T20:58:29.499Z,99.90
2022-09-12T21:00:56.319Z,99.90
2022-09-12T21:03:23.332Z,99.90
2022-09-12T21:05:50.150Z,99.90
2022-09-12T21:08:17.259Z,99.90
2022-09-12T21:10:44.562Z,99.90
2022-09-12T21:13:11.956Z,99.90
2022-09-12T21:15:40.859Z,99.90
2022-09-12T21:18:07.998Z,99.90
2022-09-12T21:20:34.971Z,99.90
2022-09-12T21:23:02.001Z,99.90
2022-09-12T21:25:29.633Z,99.90
2022-09-12T21:27:56.707Z,99.90
2022-09-12T21:30:23.907Z,99.90
2022-09-12T21:32:50.799Z,99.90
2022-09-12T21:35:17.635Z,99.90
2022-09-12T21:37:44.495Z,99.90
2022-09-12T21:40:11.366Z,99.90
2022-09-12T21:42:38.226Z,99.90
2022-09-12T21:45:05.433Z,99.90
2022-09-12T21:47:32.291Z,99.90
2022-09-12T21:49:59.387Z,99.90
2022-09-12T21:52:26.417Z,99.90
2022-09-12T21:54:53.225Z,99.90
2022-09-12T21:57:20.222Z,99.90
2022-09-12T21:59:47.163Z,99.90
2022-09-12T22:02:14.090Z,99.90
2022-09-12T22:04:40.939Z,99.90
2022-09-12T22:07:08.222Z,99.90
2022-09-12T22:09:35.051Z,99.90
2022-09-12T22:12:02.448Z,99.90
2022-09-12T22:14:29.693Z,99.90
2022-09-12T22:16:56.897Z,99.90
2022-09-12T22:19:23.807Z,99.90
2022-09-12T22:22:09.139Z,99.90
2022-09-12T22:24:36.044Z,99.90
2022-09-12T22:27:04.443Z,99.90
2022-09-12T22:29:31.618Z,99.90
2022-09-12T22:31:59.151Z,99.90
2022-09-12T22:34:26.275Z,99.90
2022-09-12T22:36:53.126Z,99.90
2022-09-12T22:39:20.074Z,99.90
2022-09-12T22:41:46.948Z,99.90
2022-09-12T22:44:14.313Z,99.90
2022-09-12T22:46:41.143Z,99.90
2022-09-12T22:49:08.203Z,99.90
2022-09-12T22:51:35.352Z,99.90
2022-09-12T22:54:02.207Z,99.90
2022-09-12T22:56:29.051Z,99.90
2022-09-12T22:58:55.847Z,99.90
2022-09-12T23:01:24.210Z,99.90
2022-09-12T23:03:51.237Z,99.90
2022-09-12T23:06:18.178Z,99.90
2022-09-12T23:08:45.160Z,99.90
2022-09-12T23:11:13.246Z,99.90
2022-09-12T23:13:42.192Z,99.90
2022-09-12T23:16:13.395Z,99.90
2022-09-12T23:18:40.358Z,99.90
2022-09-12T23:21:08.231Z,99.90
2022-09-12T23:23:35.795Z,99.90
2022-09-12T23:26:02.612Z,99.90
2022-09-12T23:28:29.878Z,99.90
2022-09-12T23:30:57.018Z,99.90
2022-09-12T23:33:23.830Z,99.90
2022-09-12T23:35:50.665Z,99.90
2022-09-12T23:38:17.477Z,99.90
2022-09-12T23:40:44.391Z,99.90
2022-09-12T23:43:11.287Z,99.90
2022-09-12T23:45:38.182Z,99.90
2022-09-12T23:48:05.277Z,99.90
2022-09-12T23:50:32.066Z,99.90
2022-09-12T23:52:59.035Z,99.90
2022-09-12T23:55:25.854Z,99.90
2022-09-12T23:57:52.707Z,99.90
